Terminal Aerodrome Forecast
Issued by NWS

Home | Current Version | Previous Version | Text Only | Print | Product List | Glossary On
Versions: 1 2 3 4 5 6 7 8 9 10 11 12 13 14 15 16 17 18 19 20 21 22 23 24 25 26 27 28 29
000
FTUS42 KGSP 202335
TAFAND
TAF
KAND 202335Z 2100/2124 20010KT P6SM SCT060 SCT100
     FM210200 25005KT P6SM SCT100 SCT250
      TEMPO 2110/2112 5SM BR
     FM211500 25009KT P6SM SCT200
     FM212000 24011KT P6SM SCT200=

USA.gov is the U.S. government's official web portal to all federal, state and local government web resources and services.